Time;durP1;ratioP1;P1;durP2;ratioP2;P2;SDS_P1;SDS_P2;PMS_P1;PMS_P2;Temp;Humidity;BMP_temperature;BMP_pressure;BME280_temperature;BME280_humidity;BME280_pressure;Samples;Min_cycle;Max_cycle;Signal;HPM_P1;HPM_P2
2022/05/05 00:00:08;;;;;;;10.88;9.20;;;10.90;99.90;;;;;;5042597;28;20216;-72
2022/05/05 00:02:35;;;;;;;9.02;8.13;;;10.90;99.90;;;;;;5048138;28;20473;-71
2022/05/05 00:05:02;;;;;;;9.05;7.93;;;10.90;99.90;;;;;;5052383;28;20431;-71
2022/05/05 00:07:27;;;;;;;9.10;7.78;;;10.90;99.90;;;;;;5053015;28;20108;-72
2022/05/05 00:09:53;;;;;;;10.88;9.00;;;10.90;99.90;;;;;;5052035;28;20118;-71
2022/05/05 00:15:05;;;;;;;10.30;8.82;;;10.90;99.90;;;;;;5052355;28;20660;-71
2022/05/05 00:17:33;;;;;;;11.10;8.35;;;10.90;99.90;;;;;;5053192;28;20366;-72
2022/05/05 00:20:00;;;;;;;12.68;8.60;;;11.00;99.90;;;;;;5052029;28;20394;-71
2022/05/05 00:22:26;;;;;;;9.60;7.88;;;10.90;99.90;;;;;;5052948;28;20025;-71
2022/05/05 00:24:52;;;;;;;9.02;7.53;;;11.00;99.90;;;;;;5052167;28;20025;-71
2022/05/05 00:27:17;;;;;;;12.38;9.00;;;10.90;99.90;;;;;;5052758;28;20116;-71
2022/05/05 00:29:43;;;;;;;11.52;9.13;;;10.90;99.90;;;;;;5052572;28;20442;-72
2022/05/05 00:32:09;;;;;;;12.57;9.10;;;11.00;99.90;;;;;;5051568;28;20619;-71
2022/05/05 00:34:34;;;;;;;10.13;8.65;;;11.00;99.90;;;;;;5052526;28;20029;-72
2022/05/05 00:37:00;;;;;;;9.93;8.63;;;11.00;99.90;;;;;;5051599;28;20432;-71
2022/05/05 00:39:26;;;;;;;9.55;8.48;;;11.00;99.90;;;;;;5051962;28;20057;-72
2022/05/05 00:41:52;;;;;;;9.25;7.85;;;11.00;99.90;;;;;;5052513;28;20067;-72
2022/05/05 00:44:18;;;;;;;9.70;8.63;;;11.00;99.90;;;;;;5052962;28;20021;-72
2022/05/05 00:46:48;;;;;;;13.90;8.90;;;11.00;99.90;;;;;;5052056;28;20489;-72
2022/05/05 00:49:14;;;;;;;9.05;8.05;;;11.00;99.90;;;;;;5051381;28;20463;-72
2022/05/05 00:51:41;;;;;;;10.15;8.40;;;11.00;99.90;;;;;;5052233;28;20025;-72
2022/05/05 00:54:07;;;;;;;7.80;7.00;;;11.00;99.90;;;;;;5051562;28;20086;-72
2022/05/05 00:56:33;;;;;;;9.77;8.10;;;11.00;99.90;;;;;;5051901;28;20021;-72
2022/05/05 00:59:00;;;;;;;8.95;8.02;;;11.00;99.90;;;;;;5051607;28;20036;-71
2022/05/05 01:01:26;;;;;;;10.48;7.57;;;11.00;99.90;;;;;;5052460;28;20033;-71
2022/05/05 01:03:53;;;;;;;8.45;7.30;;;11.00;99.90;;;;;;5052653;28;20025;-71
2022/05/05 01:06:19;;;;;;;8.18;7.38;;;11.00;99.90;;;;;;5051321;28;20041;-71
2022/05/05 01:08:46;;;;;;;8.20;7.40;;;11.00;99.90;;;;;;5052048;28;20021;-71
2022/05/05 01:11:12;;;;;;;7.57;6.88;;;11.00;99.90;;;;;;5051140;28;20037;-71
2022/05/05 01:13:42;;;;;;;7.32;6.63;;;11.00;99.90;;;;;;5051993;28;20021;-72
2022/05/05 01:16:08;;;;;;;;;;;11.00;99.90;;;;;;5051799;28;20024;-71
2022/05/05 01:18:35;;;;;;;9.32;7.40;;;11.00;99.90;;;;;;5052192;28;19905;-71
2022/05/05 01:21:00;;;;;;;8.43;7.63;;;11.00;99.90;;;;;;5051081;28;20037;-71
2022/05/05 01:23:26;;;;;;;8.30;7.50;;;10.90;99.90;;;;;;5052017;28;20120;-71
2022/05/05 01:28:43;;;;;;;8.18;7.38;;;10.90;99.90;;;;;;5032143;28;20040;-71
2022/05/05 01:31:09;;;;;;;8.15;7.35;;;10.90;99.90;;;;;;5031098;28;20116;-71
2022/05/05 01:33:35;;;;;;;9.85;7.82;;;10.90;99.90;;;;;;5032202;28;20098;-71
2022/05/05 01:36:01;;;;;;;8.07;7.28;;;10.90;99.90;;;;;;5034712;28;20029;-71
2022/05/05 01:38:40;;;;;;;8.98;7.45;;;10.90;99.90;;;;;;5051729;28;20045;-71
2022/05/05 01:41:08;;;;;;;10.17;8.07;;;10.90;99.90;;;;;;5050811;28;20032;-71
2022/05/05 01:43:35;;;;;;;8.65;7.57;;;10.90;99.90;;;;;;5033668;28;20033;-71
2022/05/05 01:46:01;;;;;;;8.80;7.50;;;10.90;99.90;;;;;;5054651;28;20048;-71
2022/05/05 01:48:27;;;;;;;7.35;6.32;;;10.90;99.90;;;;;;5055861;28;20086;-71
2022/05/05 01:50:53;;;;;;;7.95;6.82;;;10.90;99.90;;;;;;5055806;28;20033;-71
2022/05/05 01:53:19;;;;;;;7.60;6.80;;;10.90;99.90;;;;;;5054798;28;20029;-71
2022/05/05 01:55:44;;;;;;;9.02;8.23;;;10.90;99.90;;;;;;5055940;28;20449;-71
2022/05/05 01:58:11;;;;;;;8.55;7.75;;;10.90;99.90;;;;;;5054601;28;20059;-71
2022/05/05 02:00:36;;;;;;;8.85;7.38;;;10.90;99.90;;;;;;5055555;28;20028;-71
2022/05/05 02:03:02;;;;;;;11.73;8.10;;;10.90;99.90;;;;;;5054728;28;20036;-71
2022/05/05 02:05:28;;;;;;;9.55;7.80;;;10.90;99.90;;;;;;5055582;28;20025;-71
2022/05/05 02:07:54;;;;;;;8.95;7.38;;;10.90;99.90;;;;;;5054960;28;20063;-71
2022/05/05 02:10:22;;;;;;;9.20;7.68;;;10.90;99.90;;;;;;5054376;28;20037;-71
2022/05/05 02:12:51;;;;;;;8.88;7.65;;;10.90;99.90;;;;;;5055136;28;20033;-71
2022/05/05 02:15:17;;;;;;;7.63;6.93;;;10.90;99.90;;;;;;5054382;28;20031;-71
2022/05/05 02:17:44;;;;;;;9.02;6.90;;;10.90;99.90;;;;;;5055041;28;20025;-71
2022/05/05 02:20:14;;;;;;;9.57;7.82;;;10.90;99.90;;;;;;5054370;28;20060;-71
2022/05/05 02:22:40;;;;;;;9.10;7.45;;;10.90;99.90;;;;;;5054911;28;20047;-71
2022/05/05 02:25:07;;;;;;;8.55;7.47;;;10.90;99.90;;;;;;5054371;28;20029;-71
2022/05/05 02:27:53;;;;;;;8.52;7.63;;;10.90;99.90;;;;;;5054522;28;20021;-71
2022/05/05 02:30:21;;;;;;;8.75;7.85;;;10.90;99.90;;;;;;5054226;28;20180;-71
2022/05/05 02:32:48;;;;;;;8.60;7.80;;;10.90;99.90;;;;;;5054841;28;20028;-71
2022/05/05 02:35:14;;;;;;;8.88;7.97;;;10.80;99.90;;;;;;5054202;28;20029;-71
2022/05/05 02:40:25;;;;;;;9.80;7.70;;;10.80;99.90;;;;;;5055032;28;20052;-71
2022/05/05 02:42:51;;;;;;;8.30;7.28;;;10.80;99.90;;;;;;5055059;28;20048;-71
2022/05/05 02:45:17;;;;;;;8.35;7.40;;;10.70;99.90;;;;;;5054047;28;20021;-71
2022/05/05 02:47:45;;;;;;;9.98;7.65;;;10.70;99.90;;;;;;5054200;28;20024;-71
2022/05/05 02:50:11;;;;;;;8.57;7.10;;;10.60;99.90;;;;;;5053728;28;20040;-71
2022/05/05 02:52:36;;;;;;;8.95;8.05;;;10.60;99.90;;;;;;5054444;28;20021;-72
2022/05/05 02:55:02;;;;;;;8.23;7.43;;;10.60;99.90;;;;;;5055425;28;20061;-71
2022/05/05 02:57:28;;;;;;;8.73;7.93;;;10.50;99.90;;;;;;5054277;28;20029;-71
2022/05/05 02:59:54;;;;;;;12.27;8.73;;;10.50;99.90;;;;;;5054241;28;20120;-72
2022/05/05 03:02:20;;;;;;;8.38;7.57;;;10.50;99.90;;;;;;5053131;28;20104;-71
2022/05/05 03:04:47;;;;;;;10.82;8.52;;;10.50;99.90;;;;;;5054583;28;20029;-71
2022/05/05 03:07:13;;;;;;;9.65;8.48;;;10.50;99.90;;;;;;5053042;28;20028;-71
2022/05/05 03:09:40;;;;;;;9.35;8.07;;;10.50;99.90;;;;;;5054259;28;20477;-71
2022/05/05 03:12:07;;;;;;;9.70;7.82;;;10.40;99.90;;;;;;5053420;28;20036;-71
2022/05/05 03:14:32;;;;;;;8.70;7.75;;;10.30;99.90;;;;;;5054510;28;20033;-71
2022/05/05 03:16:58;;;;;;;7.88;7.18;;;10.30;99.90;;;;;;5053533;28;20040;-71
2022/05/05 03:19:26;;;;;;;9.13;8.23;;;10.30;99.90;;;;;;5053983;28;20458;-71
2022/05/05 03:21:52;;;;;;;10.68;8.45;;;10.30;99.90;;;;;;5053733;28;20102;-71
2022/05/05 03:24:17;;;;;;;9.98;8.23;;;10.20;99.90;;;;;;5053211;28;20021;-73
2022/05/05 03:26:43;;;;;;;9.98;8.32;;;10.20;99.90;;;;;;5054046;28;20040;-73
2022/05/05 03:29:09;;;;;;;12.15;8.98;;;10.20;99.90;;;;;;5052872;28;20075;-72
2022/05/05 03:31:34;;;;;;;9.57;8.57;;;10.20;99.90;;;;;;5053596;28;20109;-72
2022/05/05 03:34:00;;;;;;;12.30;9.35;;;10.20;99.90;;;;;;5053719;28;20036;-72
2022/05/05 03:36:26;;;;;;;10.27;9.23;;;10.20;99.90;;;;;;5053053;28;20021;-73
2022/05/05 03:38:52;;;;;;;11.02;9.27;;;10.20;99.90;;;;;;5053619;28;20052;-72
2022/05/05 03:41:19;;;;;;;11.27;9.88;;;10.20;99.90;;;;;;5052712;28;20405;-72
2022/05/05 03:43:45;;;;;;;9.38;8.48;;;10.20;99.90;;;;;;5053900;28;20036;-72
2022/05/05 03:46:10;;;;;;;12.30;9.82;;;10.20;99.90;;;;;;5053099;28;20033;-72
2022/05/05 03:48:36;;;;;;;10.20;9.00;;;10.20;99.90;;;;;;5053380;28;20384;-71
2022/05/05 03:51:01;;;;;;;10.23;9.00;;;10.30;99.90;;;;;;5052781;28;20075;-72
2022/05/05 03:53:27;;;;;;;11.63;9.35;;;10.30;99.90;;;;;;5052654;28;20025;-72
2022/05/05 03:55:53;;;;;;;11.23;9.25;;;10.30;99.90;;;;;;5053522;28;20029;-72
2022/05/05 03:58:18;;;;;;;10.60;8.98;;;10.30;99.90;;;;;;5052622;28;20094;-71
2022/05/05 04:00:46;;;;;;;9.75;8.75;;;10.30;99.90;;;;;;5052868;28;20481;-71
2022/05/05 04:06:00;;;;;;;11.57;9.40;;;10.40;99.90;;;;;;5053188;28;20039;-71
2022/05/05 04:08:26;;;;;;;9.20;8.30;;;10.40;99.90;;;;;;5052091;28;20029;-72
2022/05/05 04:10:52;;;;;;;9.68;8.40;;;10.40;99.90;;;;;;5035184;28;20060;-72
2022/05/05 04:13:19;;;;;;;9.57;7.88;;;10.40;99.90;;;;;;5052010;28;20112;-72
2022/05/05 04:15:45;;;;;;;9.32;8.32;;;10.50;99.90;;;;;;5053033;28;20040;-71
2022/05/05 04:18:11;;;;;;;9.00;7.93;;;10.50;99.90;;;;;;5052009;28;20036;-71
2022/05/05 04:20:36;;;;;;;8.50;7.70;;;10.50;99.90;;;;;;5052465;28;20036;-71
2022/05/05 04:23:02;;;;;;;10.57;9.48;;;10.60;99.90;;;;;;5052746;28;20033;-72
2022/05/05 04:25:28;;;;;;;10.90;9.43;;;10.60;99.90;;;;;;5051958;28;20066;-72
2022/05/05 04:27:54;;;;;;;9.35;8.40;;;10.70;99.90;;;;;;5052895;28;20017;-71
2022/05/05 04:30:19;;;;;;;12.48;9.50;;;10.70;99.90;;;;;;5051862;28;20505;-72
2022/05/05 04:32:46;;;;;;;10.95;9.55;;;10.80;99.90;;;;;;5052436;28;20060;-71
2022/05/05 04:35:11;;;;;;;9.52;8.63;;;10.80;99.90;;;;;;5051820;28;20036;-71
2022/05/05 04:37:39;;;;;;;10.98;9.30;;;10.90;99.90;;;;;;5052725;28;20025;-71
2022/05/05 04:40:05;;;;;;;9.27;8.38;;;10.90;99.90;;;;;;5052311;28;20474;-71
2022/05/05 04:42:31;;;;;;;11.02;9.45;;;10.90;99.90;;;;;;5052083;28;20037;-70
2022/05/05 04:44:57;;;;;;;9.68;8.68;;;11.00;99.90;;;;;;5052514;28;20083;-71
2022/05/05 04:47:22;;;;;;;10.85;9.13;;;11.10;99.90;;;;;;5052242;28;20027;-71
2022/05/05 04:49:48;;;;;;;10.00;8.98;;;11.10;99.90;;;;;;5034449;28;20385;-71
2022/05/05 04:52:13;;;;;;;10.20;8.57;;;11.10;99.90;;;;;;5051119;28;20466;-71
2022/05/05 04:54:39;;;;;;;13.90;11.02;;;11.20;99.90;;;;;;5052375;28;20080;-71
2022/05/05 04:57:05;;;;;;;16.08;12.00;;;11.20;99.90;;;;;;5051815;28;20032;-71
2022/05/05 04:59:30;;;;;;;20.50;14.05;;;11.30;99.90;;;;;;5051636;28;20025;-71
2022/05/05 05:01:56;;;;;;;17.23;14.15;;;11.30;99.90;;;;;;5051698;28;20036;-71
2022/05/05 05:04:22;;;;;;;18.80;15.85;;;11.40;99.90;;;;;;5051332;28;20108;-70
2022/05/05 05:06:48;;;;;;;16.65;14.52;;;11.40;99.90;;;;;;5052268;28;20056;-71
2022/05/05 05:09:14;;;;;;;17.85;14.32;;;11.40;99.90;;;;;;5051899;28;20091;-71
2022/05/05 05:11:40;;;;;;;19.65;14.63;;;11.30;99.90;;;;;;5051922;28;20037;-71
2022/05/05 05:14:05;;;;;;;18.73;14.73;;;11.30;99.90;;;;;;5051908;28;20029;-71
2022/05/05 05:16:31;;;;;;;16.30;13.05;;;11.30;99.90;;;;;;5051544;28;20024;-71
2022/05/05 05:18:56;;;;;;;15.20;12.60;;;11.30;99.90;;;;;;5051386;28;20025;-71
2022/05/05 05:21:23;;;;;;;18.45;15.02;;;11.30;99.90;;;;;;5050390;28;20081;-71
2022/05/05 05:23:49;;;;;;;18.58;14.55;;;11.30;99.90;;;;;;5051815;28;20466;-72
2022/05/05 05:26:14;;;;;;;19.63;15.50;;;11.40;99.90;;;;;;5051443;28;20373;-72
2022/05/05 05:28:41;;;;;;;15.38;13.75;;;11.40;99.90;;;;;;5051770;28;20021;-77
2022/05/05 05:31:07;;;;;;;18.13;14.90;;;11.40;99.90;;;;;;5051634;28;20043;-71
2022/05/05 05:33:33;;;;;;;15.88;12.85;;;11.50;99.90;;;;;;5051410;28;20029;-70
2022/05/05 05:35:58;;;;;;;18.45;14.63;;;11.50;99.90;;;;;;5051946;28;20025;-71
2022/05/05 05:38:24;;;;;;;18.95;14.60;;;11.60;99.90;;;;;;5050589;28;20048;-70
2022/05/05 05:40:50;;;;;;;18.88;15.40;;;11.60;99.90;;;;;;5051801;28;20041;-70
2022/05/05 05:43:16;;;;;;;18.60;14.25;;;11.70;99.90;;;;;;5051016;28;20026;-70
2022/05/05 05:45:42;;;;;;;18.70;14.75;;;11.70;99.90;;;;;;5051552;28;20032;-71
2022/05/05 05:48:08;;;;;;;17.50;14.85;;;11.70;99.90;;;;;;5051511;28;20029;-72
2022/05/05 05:50:34;;;;;;;22.73;16.60;;;11.80;99.90;;;;;;5032865;28;20082;-74
2022/05/05 05:53:00;;;;;;;21.02;15.50;;;11.80;99.90;;;;;;5051784;28;20040;-79
2022/05/05 05:55:26;;;;;;;16.73;14.88;;;11.80;99.90;;;;;;5050990;28;20034;-76
2022/05/05 05:57:51;;;;;;;17.95;15.00;;;11.90;99.90;;;;;;5052071;28;20025;-81
2022/05/05 06:00:18;;;;;;;20.27;15.90;;;11.90;99.90;;;;;;5051046;28;20033;-73
2022/05/05 06:05:28;;;;;;;23.92;16.77;;;12.00;99.90;;;;;;5050400;28;20031;-77
2022/05/05 06:07:58;;;;;;;21.92;16.13;;;12.00;99.90;;;;;;5051450;28;20104;-74
2022/05/05 06:10:25;;;;;;;20.88;15.60;;;12.10;99.90;;;;;;5050464;28;20064;-73
2022/05/05 06:12:51;;;;;;;16.20;13.48;;;12.30;99.90;;;;;;5051415;28;20037;-74
2022/05/05 06:15:17;;;;;;;19.58;16.20;;;12.30;99.90;;;;;;5051575;28;20382;-74
2022/05/05 06:17:42;;;;;;;20.02;14.95;;;12.30;99.90;;;;;;5052497;28;20100;-74
2022/05/05 06:20:09;;;;;;;21.92;15.93;;;12.30;99.90;;;;;;5051056;28;20530;-74
2022/05/05 06:22:34;;;;;;;24.25;16.40;;;12.40;99.90;;;;;;5050675;28;20036;-74
2022/05/05 06:25:01;;;;;;;17.42;15.18;;;12.50;99.90;;;;;;5051466;28;20021;-77
2022/05/05 06:27:27;;;;;;;20.85;16.05;;;12.60;99.90;;;;;;5050820;28;20021;-71
2022/05/05 06:29:52;;;;;;;18.85;16.45;;;12.60;99.90;;;;;;5049660;28;20027;-73
2022/05/05 06:32:18;;;;;;;18.27;15.90;;;12.60;99.90;;;;;;5048723;28;20032;-74
2022/05/05 06:34:44;;;;;;;20.33;15.55;;;12.60;99.90;;;;;;5056201;28;20032;-75
2022/05/05 06:37:10;;;;;;;27.13;16.55;;;12.60;99.90;;;;;;5054678;28;20028;-75
2022/05/05 06:39:35;;;;;;;25.90;16.38;;;12.60;99.90;;;;;;5054205;28;20048;-72
2022/05/05 06:42:01;;;;;;;21.48;16.48;;;12.60;99.90;;;;;;5053834;28;20115;-72
2022/05/05 06:44:27;;;;;;;19.90;15.63;;;12.70;99.90;;;;;;5053836;28;20053;-74
2022/05/05 06:46:53;;;;;;;19.45;15.35;;;12.70;99.90;;;;;;5054663;28;20029;-74
2022/05/05 06:49:18;;;;;;;19.30;15.65;;;12.90;99.90;;;;;;5053868;28;20080;-72
2022/05/05 06:51:45;;;;;;;15.57;13.95;;;12.80;99.90;;;;;;5054311;28;20029;-73
2022/05/05 06:54:10;;;;;;;16.85;14.20;;;12.90;99.90;;;;;;5053768;28;20025;-72
2022/05/05 06:56:36;;;;;;;17.58;13.82;;;13.00;99.90;;;;;;5048014;28;20032;-72
2022/05/05 06:59:02;;;;;;;16.27;13.65;;;13.00;99.90;;;;;;5052590;28;20071;-72
2022/05/05 07:06:56;;;;;;;17.48;12.82;;;13.30;99.90;;;;;;5053034;28;20083;-73
2022/05/05 07:12:06;;;;;;;15.40;10.18;;;13.40;99.90;;;;;;5054061;28;20051;-73
2022/05/05 07:14:31;;;;;;;10.73;9.63;;;13.50;99.90;;;;;;5053657;28;20032;-73
2022/05/05 07:16:57;;;;;;;10.55;9.45;;;13.50;99.90;;;;;;5053674;28;20060;-73
2022/05/05 07:19:23;;;;;;;14.35;10.40;;;13.60;99.90;;;;;;5053222;28;20033;-72
2022/05/05 07:21:48;;;;;;;12.80;10.27;;;13.60;99.90;;;;;;5053719;28;20029;-74
2022/05/05 07:24:14;;;;;;;14.60;11.45;;;13.70;99.90;;;;;;5053228;28;20377;-73
2022/05/05 07:26:40;;;;;;;14.90;11.68;;;13.80;99.90;;;;;;5053651;28;20060;-74
2022/05/05 07:29:05;;;;;;;16.05;11.70;;;13.90;99.90;;;;;;5036021;28;20025;-74
2022/05/05 07:31:31;;;;;;;12.88;10.27;;;14.00;99.90;;;;;;5052071;28;20306;-73
2022/05/05 07:33:57;;;;;;;14.27;10.43;;;14.10;99.90;;;;;;5054078;28;20490;-73
2022/05/05 07:36:24;;;;;;;12.07;10.13;;;14.20;99.90;;;;;;5052854;28;20383;-73
2022/05/05 07:38:49;;;;;;;13.05;10.80;;;14.30;99.90;;;;;;5052718;28;20902;-73
2022/05/05 07:41:15;;;;;;;14.95;11.13;;;14.40;99.90;;;;;;5052465;28;20072;-73
2022/05/05 07:43:41;;;;;;;12.45;10.60;;;14.60;99.90;;;;;;5052932;28;20025;-73
2022/05/05 07:46:06;;;;;;;13.05;10.55;;;14.70;99.90;;;;;;5053376;28;20033;-74
2022/05/05 07:48:32;;;;;;;13.80;9.43;;;14.70;99.90;;;;;;5052420;28;20064;-73
2022/05/05 07:50:58;;;;;;;13.25;9.13;;;14.60;99.90;;;;;;5052977;28;20524;-74
2022/05/05 07:53:24;;;;;;;10.30;9.10;;;14.60;99.90;;;;;;5052015;28;20025;-73
2022/05/05 07:55:50;;;;;;;11.45;10.23;;;14.60;99.90;;;;;;5053646;28;20387;-74
2022/05/05 07:58:15;;;;;;;13.00;9.43;;;14.70;99.90;;;;;;5052673;28;20028;-76
2022/05/05 08:00:41;;;;;;;16.40;9.95;;;14.80;99.90;;;;;;5033690;28;20051;-76
2022/05/05 08:03:06;;;;;;;13.57;9.50;;;14.80;99.90;;;;;;5053073;28;20052;-76
2022/05/05 08:05:32;;;;;;;12.27;10.00;;;14.80;99.90;;;;;;5052186;28;20104;-73
2022/05/05 08:07:58;;;;;;;13.68;11.30;;;14.80;99.90;;;;;;5052571;28;20033;-72
2022/05/05 08:10:27;;;;;;;10.15;8.98;;;14.70;99.90;;;;;;5052177;28;20094;-73
2022/05/05 08:12:53;;;;;;;12.13;10.85;;;14.60;99.90;;;;;;5052268;28;20058;-73
2022/05/05 08:15:19;;;;;;;12.70;10.73;;;14.60;99.90;;;;;;5033946;28;20033;-74
2022/05/05 08:17:45;;;;;;;13.68;11.15;;;14.70;99.90;;;;;;5054549;28;20025;-73
2022/05/05 08:20:12;;;;;;;11.75;10.27;;;14.60;99.90;;;;;;5052376;28;20021;-73
2022/05/05 08:22:38;;;;;;;13.93;11.30;;;14.50;99.90;;;;;;5051901;28;20491;-73
2022/05/05 08:30:34;;;;;;;14.38;10.93;;;14.40;99.90;;;;;;5050383;28;20097;-72
2022/05/05 08:32:59;;;;;;;17.25;12.18;;;14.50;99.90;;;;;;5052099;28;20616;-72
2022/05/05 08:35:27;;;;;;;15.55;12.25;;;14.50;99.90;;;;;;5051720;28;20096;-71
2022/05/05 08:37:54;;;;;;;13.70;10.85;;;14.60;99.90;;;;;;5050662;28;20198;-72
2022/05/05 08:40:23;;;;;;;15.18;12.55;;;14.80;99.90;;;;;;5050860;28;20057;-73
2022/05/05 08:42:49;;;;;;;15.55;11.18;;;15.00;99.90;;;;;;5052269;28;20106;-72
2022/05/05 08:45:15;;;;;;;13.80;11.80;;;15.10;99.90;;;;;;5041392;28;20032;-72
2022/05/05 08:47:44;;;;;;;14.60;11.07;;;15.10;99.90;;;;;;5063963;28;20025;-72
2022/05/05 08:50:10;;;;;;;12.43;10.32;;;15.20;99.90;;;;;;5056334;28;20044;-71
2022/05/05 08:52:48;;;;;;;16.25;12.95;;;15.30;99.90;;;;;;5035628;28;20036;-72
2022/05/05 08:55:20;;;;;;;12.93;10.63;;;15.40;99.90;;;;;;5052648;28;20103;-71
2022/05/05 08:57:46;;;;;;;12.98;11.52;;;15.40;99.90;;;;;;5053169;28;20075;-71
2022/05/05 09:00:14;;;;;;;14.27;12.30;;;15.40;99.90;;;;;;5052237;28;20072;-71
2022/05/05 09:02:43;;;;;;;15.63;12.32;;;15.40;99.90;;;;;;5049830;28;20083;-72
2022/05/05 09:05:09;;;;;;;13.85;12.00;;;15.50;99.90;;;;;;5031816;28;20453;-72
2022/05/05 09:07:49;;;;;;;15.98;12.07;;;15.50;99.90;;;;;;5031313;28;20033;-72
2022/05/05 09:10:20;;;;;;;13.63;12.07;;;15.50;99.90;;;;;;5051298;28;20048;-72
2022/05/05 09:12:57;;;;;;;15.48;13.40;;;15.50;99.90;;;;;;5051412;28;20048;-72
2022/05/05 09:15:33;;;;;;;13.38;11.25;;;15.50;99.90;;;;;;5050678;28;20025;-73
2022/05/05 09:18:19;;;;;;;15.32;13.55;;;15.40;99.90;;;;;;5051866;28;20120;-72
2022/05/05 09:20:45;;;;;;;17.40;14.45;;;15.20;99.90;;;;;;5050288;28;20128;-72
2022/05/05 09:26:35;;;;;;;22.23;16.63;;;15.00;99.90;;;;;;5022017;28;20585;-72
2022/05/05 09:29:21;;;;;;;20.10;15.20;;;14.90;99.90;;;;;;5050746;28;20451;-71
2022/05/05 09:31:46;;;;;;;24.38;17.55;;;14.90;99.90;;;;;;5050414;28;20382;-72
2022/05/05 09:34:19;;;;;;;16.83;14.30;;;14.90;99.90;;;;;;5051335;28;20025;-71
2022/05/05 09:36:44;;;;;;;20.05;16.00;;;14.80;99.90;;;;;;5050543;28;20504;-72
2022/05/05 09:39:12;;;;;;;18.38;16.20;;;14.80;99.90;;;;;;5051163;28;20076;-72
2022/05/05 09:41:45;;;;;;;21.38;15.75;;;14.70;99.90;;;;;;5050419;28;20037;-72
2022/05/05 09:44:16;;;;;;;17.92;15.43;;;14.70;99.90;;;;;;5051491;28;20061;-71
2022/05/05 09:46:43;;;;;;;19.13;17.00;;;14.70;99.90;;;;;;5050531;28;20021;-73
2022/05/05 09:49:19;;;;;;;26.10;16.35;;;14.70;99.90;;;;;;5051641;28;20040;-73
2022/05/05 09:57:42;;;;;;;16.48;13.68;;;14.80;99.90;;;;;;5057009;28;20500;-72
2022/05/05 10:00:58;;;;;;;18.52;14.40;;;14.90;99.90;;;;;;5051465;28;20041;-73
2022/05/05 10:05:48;;;;;;;25.73;17.73;;;15.20;99.90;;;;;;5052890;28;20040;-73
2022/05/05 10:08:21;;;;;;;19.33;16.10;;;15.30;99.90;;;;;;5055096;28;20033;-73
2022/05/05 10:10:47;;;;;;;20.70;15.27;;;15.20;99.90;;;;;;5053939;28;20040;-73
2022/05/05 10:13:13;;;;;;;20.33;15.52;;;15.30;99.90;;;;;;5055039;28;20033;-73
2022/05/05 10:15:40;;;;;;;21.08;16.67;;;15.40;99.90;;;;;;5036023;28;20405;-73
2022/05/05 10:18:05;;;;;;;18.73;16.58;;;15.40;99.90;;;;;;5054964;28;20039;-73
2022/05/05 10:20:32;;;;;;;19.88;17.05;;;15.50;99.90;;;;;;5054027;28;20036;-73
2022/05/05 10:23:40;;;;;;;17.30;14.32;;;15.70;99.90;;;;;;5054336;28;20033;-73
2022/05/05 10:26:08;;;;;;;17.25;14.85;;;15.70;99.90;;;;;;5021766;28;20044;-73
2022/05/05 10:28:41;;;;;;;19.13;15.48;;;15.90;99.90;;;;;;5054142;28;20040;-73
2022/05/05 10:31:11;;;;;;;18.55;16.40;;;16.00;99.90;;;;;;5054192;28;20021;-73
2022/05/05 10:34:04;;;;;;;;;;;16.10;99.90;;;;;;5034465;28;20485;-73
2022/05/05 10:36:31;;;;;;;18.05;15.45;;;16.20;99.90;;;;;;5031261;28;19905;-72
2022/05/05 10:38:57;;;;;;;21.40;16.45;;;16.30;99.90;;;;;;5054068;28;20049;-72
2022/05/05 10:41:39;;;;;;;20.80;16.20;;;16.30;99.90;;;;;;5050640;28;20049;-72
2022/05/05 10:44:20;;;;;;;18.38;16.05;;;16.40;99.90;;;;;;5055655;28;20040;-72
2022/05/05 10:47:05;;;;;;;22.00;17.70;;;16.40;99.90;;;;;;5055070;28;20021;-72
2022/05/05 10:49:37;;;;;;;18.58;15.82;;;16.40;99.90;;;;;;5053925;28;20069;-72
2022/05/05 10:52:11;;;;;;;18.50;15.90;;;16.40;99.90;;;;;;5054719;28;20028;-72
2022/05/05 10:54:38;;;;;;;16.58;14.18;;;16.40;99.90;;;;;;5033985;28;20026;-72
2022/05/05 10:57:25;;;;;;;21.65;16.98;;;16.40;99.90;;;;;;5016732;28;20474;-72
2022/05/05 11:00:10;;;;;;;19.00;17.00;;;16.50;99.90;;;;;;5039746;28;20107;-71
2022/05/05 11:02:37;;;;;;;18.30;16.27;;;16.40;99.90;;;;;;5053050;28;20040;-71
2022/05/05 11:05:21;;;;;;;22.13;15.90;;;16.30;99.90;;;;;;5054348;28;20072;-71
2022/05/05 11:07:51;;;;;;;21.02;16.65;;;16.20;99.90;;;;;;5054250;28;20056;-71
2022/05/05 11:13:37;;;;;;;22.67;18.17;;;16.00;99.90;;;;;;5020060;28;20044;-72
2022/05/05 11:22:10;;;;;;;23.92;20.50;;;15.70;99.90;;;;;;5054093;28;20129;-72
2022/05/05 11:24:36;;;;;;;22.30;19.15;;;15.60;99.90;;;;;;5053316;28;20029;-71
2022/05/05 11:27:03;;;;;;;21.58;18.75;;;15.50;99.90;;;;;;5034056;28;20450;-71
2022/05/05 11:29:30;;;;;;;25.45;20.77;;;15.40;99.90;;;;;;5031849;28;20028;-71
2022/05/05 11:32:01;;;;;;;24.40;21.77;;;15.30;99.90;;;;;;5053330;28;20123;-71
2022/05/05 11:34:38;;;;;;;26.58;21.65;;;15.30;99.90;;;;;;5054399;28;20469;-71
2022/05/05 11:37:05;;;;;;;29.40;22.25;;;15.20;99.90;;;;;;5053314;28;20017;-71
2022/05/05 11:39:32;;;;;;;27.38;21.02;;;15.10;99.90;;;;;;5052924;28;20091;-71
2022/05/05 11:42:09;;;;;;;26.17;22.17;;;14.90;99.90;;;;;;5053493;28;20488;-71
2022/05/05 11:44:43;;;;;;;28.17;22.95;;;14.80;99.90;;;;;;5035420;28;20053;-71
2022/05/05 11:47:11;;;;;;;26.95;22.65;;;14.70;99.90;;;;;;5051150;28;20482;-71
2022/05/05 11:49:37;;;;;;;28.65;23.30;;;14.70;99.90;;;;;;5054757;28;20428;-70
2022/05/05 11:52:04;;;;;;;25.38;22.67;;;14.60;99.90;;;;;;5053473;28;20060;-71
2022/05/05 11:54:33;;;;;;;30.50;24.67;;;14.70;99.90;;;;;;5052811;28;20033;-71
2022/05/05 11:56:59;;;;;;;26.65;21.85;;;14.80;99.90;;;;;;5053269;28;20117;-70
2022/05/05 12:02:19;;;;;;;31.98;24.85;;;14.90;99.90;;;;;;5052997;28;20060;-70
2022/05/05 12:04:55;;;;;;;25.85;23.02;;;14.90;99.90;;;;;;5053209;28;20021;-71
2022/05/05 12:07:24;;;;;;;29.73;25.35;;;14.90;99.90;;;;;;5053364;28;20024;-70
2022/05/05 12:09:52;;;;;;;28.20;24.80;;;15.00;99.90;;;;;;5052821;28;20044;-70
2022/05/05 12:12:19;;;;;;;30.83;24.85;;;15.00;99.90;;;;;;5056503;28;20109;-69
2022/05/05 12:14:52;;;;;;;26.52;22.77;;;15.10;99.90;;;;;;5052704;28;20024;-70
2022/05/05 12:17:20;;;;;;;27.25;23.63;;;15.10;99.90;;;;;;5053030;28;20033;-71
2022/05/05 12:19:55;;;;;;;28.85;25.13;;;15.10;99.90;;;;;;5052476;28;20556;-70
2022/05/05 12:22:38;;;;;;;32.95;26.85;;;15.10;99.90;;;;;;5052631;28;20043;-71
2022/05/05 12:25:15;;;;;;;34.92;28.02;;;15.10;99.90;;;;;;5052946;28;20036;-72
2022/05/05 12:27:53;;;;;;;36.70;26.45;;;15.10;99.90;;;;;;5051026;28;20021;-72
2022/05/05 12:30:36;;;;;;;33.17;26.08;;;15.20;99.90;;;;;;5052413;28;20452;-71
2022/05/05 12:33:04;;;;;;;31.23;25.73;;;15.30;99.90;;;;;;5051562;28;20151;-72
2022/05/05 12:35:31;;;;;;;34.05;27.48;;;15.40;99.90;;;;;;5045032;28;20371;-72
2022/05/05 12:37:58;;;;;;;31.83;27.50;;;15.40;99.90;;;;;;5052880;28;20040;-71
2022/05/05 12:40:24;;;;;;;34.78;28.38;;;15.50;99.90;;;;;;5052924;28;20517;-72
2022/05/05 12:42:49;;;;;;;35.47;28.80;;;15.50;99.90;;;;;;5052200;28;20025;-72
2022/05/05 12:45:15;;;;;;;31.88;25.50;;;15.40;99.90;;;;;;5052650;28;20036;-72
2022/05/05 12:47:43;;;;;;;36.63;27.52;;;15.30;99.90;;;;;;5051638;28;20462;-72
2022/05/05 12:50:27;;;;;;;36.63;29.15;;;15.30;99.90;;;;;;5051938;28;20385;-72
2022/05/05 13:01:05;;;;;;;31.60;26.40;;;15.80;99.90;;;;;;5052195;28;20040;-71
2022/05/05 13:03:31;;;;;;;30.88;24.73;;;15.90;99.90;;;;;;5051634;28;20025;-73
2022/05/05 13:05:57;;;;;;;31.63;25.33;;;15.90;99.90;;;;;;5052698;28;20025;-72
2022/05/05 13:08:23;;;;;;;34.13;25.75;;;15.90;99.90;;;;;;5052229;28;20039;-72
2022/05/05 13:10:49;;;;;;;32.47;25.60;;;16.00;99.90;;;;;;5051222;28;20037;-71
2022/05/05 13:13:14;;;;;;;34.65;27.55;;;16.00;99.90;;;;;;5051802;28;20033;-72
2022/05/05 13:15:42;;;;;;;36.42;27.30;;;15.90;99.90;;;;;;5051547;28;20028;-71
2022/05/05 13:18:08;;;;;;;32.13;26.00;;;16.00;99.90;;;;;;5051905;28;20021;-72
2022/05/05 13:20:34;;;;;;;35.58;25.17;;;16.10;99.90;;;;;;5051539;28;20458;-72
2022/05/05 13:23:00;;;;;;;32.83;25.83;;;16.10;99.90;;;;;;5051775;28;20056;-72
2022/05/05 13:25:27;;;;;;;32.17;23.98;;;16.30;99.90;;;;;;5052052;28;20108;-72
2022/05/05 13:27:53;;;;;;;32.50;25.05;;;16.60;99.90;;;;;;5051396;28;20064;-72
2022/05/05 13:30:19;;;;;;;33.95;25.45;;;16.90;99.90;;;;;;5051939;28;20462;-72
2022/05/05 13:32:45;;;;;;;30.30;23.25;;;17.10;99.90;;;;;;5050441;28;20120;-72
2022/05/05 13:35:13;;;;;;;28.25;22.70;;;17.20;99.90;;;;;;5051699;28;20408;-72